Estación de El Carmen

Ultimos registro cada 15 minutos 78
Estación Fecha / Hora Temperatura Humedad Lluvia Velocidad Dirección Radiación Presion
78 El Carmen 01-09-2026 19:15 16,4 73,7 0 0 150 0,6 975,9
77 El Carmen 01-09-2026 19:00 16,8 73 0 0 150 0,6 976,1
76 El Carmen 01-09-2026 18:45 16,8 72,8 0 0 150 0,6 976,2
75 El Carmen 01-09-2026 18:30 16,8 73,7 0 0 150 0,6 976,4
74 El Carmen 01-09-2026 18:15 17,6 71,7 0 0 150 3,1 976,3
73 El Carmen 01-09-2026 18:00 18,4 65,4 0 0 149 9,4 976,3
72 El Carmen 01-09-2026 17:45 18,7 65,3 0 0 147 23,1 976,3
71 El Carmen 01-09-2026 17:30 19,1 64,2 0 0,5 139 25,6 976
70 El Carmen 01-09-2026 17:15 19,6 61,5 0 1 139 36,9 975,7
69 El Carmen 01-09-2026 17:00 19,7 60,2 0 1,5 139 55,6 975,5
68 El Carmen 01-09-2026 16:45 20,4 57,5 0 1,5 143 86,9 975,7
67 El Carmen 01-09-2026 16:30 21 57,5 0 1,5 157 110,6 975,8
66 El Carmen 01-09-2026 16:15 22,1 54,9 0 0 149 191,9 975,6
65 El Carmen 01-09-2026 16:00 23,1 49,9 0 0 153 201,9 975,6
64 El Carmen 01-09-2026 15:45 21,9 54,3 0 0 174 171,9 975,6
63 El Carmen 01-09-2026 15:30 23,1 51 0 0 195 239,4 975,4
62 El Carmen 01-09-2026 15:15 22,3 50,2 0 0 219 236,9 975,6
61 El Carmen 01-09-2026 15:00 22,2 50,5 0 0 3 223,1 975,7
60 El Carmen 01-09-2026 14:45 22,5 52,1 0 0 34 264,4 976
59 El Carmen 01-09-2026 14:30 21,9 52,8 0 0 357 334,4 976
58 El Carmen 01-09-2026 14:15 22,3 51,4 0 0 348 450,6 976,4
57 El Carmen 01-09-2026 14:00 23,4 49,8 0 0 150 533,1 976,6
56 El Carmen 01-09-2026 13:45 22,2 52 0 0 154 441,9 977,1
55 El Carmen 01-09-2026 13:30 21,1 53,7 0 0 83 425,6 977,5
54 El Carmen 01-09-2026 13:15 20,5 53,6 0 0 143 406,9 977,7
53 El Carmen 01-09-2026 13:00 20,2 54 0 0 167 346,9 977,8
52 El Carmen 01-09-2026 12:45 20,6 55,9 0 0 187 533,1 978,2
51 El Carmen 01-09-2026 12:30 20,1 60 0 0 161 400,6 978,5
50 El Carmen 01-09-2026 12:15 19,8 59,4 0 0 101 576,9 978,8
49 El Carmen 01-09-2026 12:00 19 64,1 0 0 149 655,6 979
48 El Carmen 01-09-2026 11:45 18 65,2 0 0 131 495,6 979,3
47 El Carmen 01-09-2026 11:30 17,2 67,7 0 0 119 309,4 979,5
46 El Carmen 01-09-2026 11:15 16,9 67,4 0 0 126 298,1 979,6
45 El Carmen 01-09-2026 11:00 16,3 71,5 0 0 135 289,4 979,7
44 El Carmen 01-09-2026 10:45 16,1 72 0 0,5 135 248,1 979,9
43 El Carmen 01-09-2026 10:30 15,7 73,1 0 1,5 135 268,1 980
42 El Carmen 01-09-2026 10:15 14,9 75,3 0 1 136 178,1 979,9
41 El Carmen 01-09-2026 10:00 14,2 76,7 0 1,5 133 288,1 980
40 El Carmen 01-09-2026 09:45 14,4 77,7 0 2 132 350,6 980,1
39 El Carmen 01-09-2026 09:30 14 80,1 0 2 136 375,6 980,1
38 El Carmen 01-09-2026 09:15 13 81,4 0 2,5 139 284,4 980,1
37 El Carmen 01-09-2026 09:00 12,8 82,6 0 2 133 26,9 980
36 El Carmen 01-09-2026 08:45 11,9 83,8 0 2 122 209,4 980
35 El Carmen 01-09-2026 08:30 12 83,6 0 1,5 122 173,1 979,8
34 El Carmen 01-09-2026 08:15 11,4 84,8 0 1 121 21,9 979,7
33 El Carmen 01-09-2026 08:00 10,6 87 0 0,5 129 50,6 979,6
32 El Carmen 01-09-2026 07:45 9,1 88,8 0 0 131 13,1 979,6
31 El Carmen 01-09-2026 07:30 9,1 89,2 0 0 124 9,4 979,3
30 El Carmen 01-09-2026 07:15 8,6 91 0 0 119 3,1 979,4
29 El Carmen 01-09-2026 07:00 8,8 90,5 0 0 119 0,6 979,2
28 El Carmen 01-09-2026 06:45 9 90,6 0 0 121 0,6 979,3
27 El Carmen 01-09-2026 06:30 8,9 90,5 0 0,5 119 0,6 979,3
26 El Carmen 01-09-2026 06:15 8,9 90,5 0 0 108 0,6 979,3
25 El Carmen 01-09-2026 06:00 9,2 88,4 0 0 105 0,6 979,3
24 El Carmen 01-09-2026 05:45 9,7 87,6 0 0 107 0,6 979,2
23 El Carmen 01-09-2026 05:30 9,6 88,3 0 0,5 112 0,6 979,2
22 El Carmen 01-09-2026 05:15 9,6 88,1 0 0 115 0,6 979,3
21 El Carmen 01-09-2026 05:00 9,5 88,6 0 0 108 0,6 979,2
20 El Carmen 01-09-2026 04:45 9,5 88,3 0 0 105 0,6 979,1
19 El Carmen 01-09-2026 04:30 9,3 88,4 0 0 105 0,6 979,1
18 El Carmen 01-09-2026 04:15 9,7 86,5 0 0 105 0,6 978,9
17 El Carmen 01-09-2026 04:00 10,1 85,4 0 0 105 0,6 978,8
16 El Carmen 01-09-2026 03:45 10,1 86,3 0 0 107 0,6 979
15 El Carmen 01-09-2026 03:30 8,9 89,4 0 0 107 0,6 979,3
14 El Carmen 01-09-2026 03:15 9,3 88 0 0 107 0,6 979,4
13 El Carmen 01-09-2026 03:00 11,4 80,3 0 0 115 0,6 979,5
12 El Carmen 01-09-2026 02:45 10,7 84,4 0 0 117 0,6 979,8
11 El Carmen 01-09-2026 02:30 9,4 88,7 0 0 117 0,6 980,1
10 El Carmen 01-09-2026 02:15 10,2 85,3 0 0 117 0,6 980,1
9 El Carmen 01-09-2026 02:00 10,3 85,9 0 0 117 0,6 980
8 El Carmen 01-09-2026 01:45 9,4 87,8 0 0 117 0,6 980,4
7 El Carmen 01-09-2026 01:30 9,8 86,5 0 0 117 0,6 980,2
6 El Carmen 01-09-2026 01:15 9,9 85,8 0 0 117 0,6 980,3
5 El Carmen 01-09-2026 01:00 10,1 85,2 0 0 117 0,6 980,4
4 El Carmen 01-09-2026 00:45 10,2 84,1 0 0 115 0,6 980,4
3 El Carmen 01-09-2026 00:30 9,8 86,7 0 0 105 0,6 980,3
2 El Carmen 01-09-2026 00:15 9,8 86,3 0 0 105 0,6 980,8
1 El Carmen 01-09-2026 00:00 10,1 85,1 0 0 100 0,6 980,7